sensor_id;sensor_type;location;lat;lon;timestamp;pressure;altitude;pressure_sealevel;temperature;humidity
46476;BME280;53376;51.114;14.738;2022-09-27T00:03:24;96803.09;;;15.01;57.72
46476;BME280;53376;51.114;14.738;2022-09-27T00:06:06;96799.59;;;15.00;57.76
46476;BME280;53376;51.114;14.738;2022-09-27T00:08:48;96799.72;;;14.98;58.03
46476;BME280;53376;51.114;14.738;2022-09-27T00:11:22;96789.88;;;14.99;57.83
46476;BME280;53376;51.114;14.738;2022-09-27T00:14:05;96792.56;;;14.99;58.01
46476;BME280;53376;51.114;14.738;2022-09-27T00:30:14;96783.50;;;14.92;58.07
46476;BME280;53376;51.114;14.738;2022-09-27T00:32:54;96778.16;;;14.92;58.31
46476;BME280;53376;51.114;14.738;2022-09-27T00:35:21;96778.97;;;14.92;58.07
46476;BME280;53376;51.114;14.738;2022-09-27T00:37:54;96781.00;;;14.90;58.28
46476;BME280;53376;51.114;14.738;2022-09-27T00:40:34;96776.47;;;14.91;58.32
46476;BME280;53376;51.114;14.738;2022-09-27T00:43:01;96763.97;;;14.91;58.29
46476;BME280;53376;51.114;14.738;2022-09-27T00:45:47;96757.59;;;14.92;58.37
46476;BME280;53376;51.114;14.738;2022-09-27T00:58:44;96739.88;;;14.91;58.32
46476;BME280;53376;51.114;14.738;2022-09-27T01:01:28;96738.22;;;14.90;58.28
46476;BME280;53376;51.114;14.738;2022-09-27T01:04:11;96730.19;;;14.90;58.33
46476;BME280;53376;51.114;14.738;2022-09-27T01:06:47;96733.03;;;14.89;58.33
46476;BME280;53376;51.114;14.738;2022-09-27T01:09:28;96725.31;;;14.86;58.33
46476;BME280;53376;51.114;14.738;2022-09-27T01:25:54;96704.09;;;14.84;58.42
46476;BME280;53376;51.114;14.738;2022-09-27T01:28:56;96689.03;;;14.83;58.35
46476;BME280;53376;51.114;14.738;2022-09-27T01:31:45;96684.69;;;14.82;58.29
46476;BME280;53376;51.114;14.738;2022-09-27T01:34:37;96678.34;;;14.83;58.47
46476;BME280;53376;51.114;14.738;2022-09-27T01:37:24;96680.31;;;14.81;58.36
46476;BME280;53376;51.114;14.738;2022-09-27T01:40:19;96680.66;;;14.78;58.04
46476;BME280;53376;51.114;14.738;2022-09-27T01:50:20;96684.28;;;14.69;58.22
46476;BME280;53376;51.114;14.738;2022-09-27T01:53:05;96674.88;;;14.64;57.92
46476;BME280;53376;51.114;14.738;2022-09-27T01:56:06;96659.84;;;14.63;58.26
46476;BME280;53376;51.114;14.738;2022-09-27T01:59:01;96663.38;;;14.64;58.29
46476;BME280;53376;51.114;14.738;2022-09-27T02:01:45;96661.38;;;14.66;58.43
46476;BME280;53376;51.114;14.738;2022-09-27T02:04:41;96647.34;;;14.64;58.11
46476;BME280;53376;51.114;14.738;2022-09-27T02:17:42;96625.63;;;14.67;58.23
46476;BME280;53376;51.114;14.738;2022-09-27T02:20:30;96621.97;;;14.68;58.08
46476;BME280;53376;51.114;14.738;2022-09-27T02:23:21;96614.13;;;14.66;58.21
46476;BME280;53376;51.114;14.738;2022-09-27T02:26:14;96620.59;;;14.64;58.28
46476;BME280;53376;51.114;14.738;2022-09-27T02:29:02;96608.22;;;14.63;58.24
46476;BME280;53376;51.114;14.738;2022-09-27T02:45:33;96585.84;;;14.64;58.14
46476;BME280;53376;51.114;14.738;2022-09-27T02:48:29;96587.38;;;14.66;58.35
46476;BME280;53376;51.114;14.738;2022-09-27T02:51:25;96580.38;;;14.65;58.23
46476;BME280;53376;51.114;14.738;2022-09-27T02:54:25;96576.84;;;14.65;58.43
46476;BME280;53376;51.114;14.738;2022-09-27T02:57:14;96573.31;;;14.64;58.25
46476;BME280;53376;51.114;14.738;2022-09-27T03:00:18;96576.97;;;14.63;58.17
46476;BME280;53376;51.114;14.738;2022-09-27T03:10:05;96552.56;;;14.58;58.44
46476;BME280;53376;51.114;14.738;2022-09-27T03:12:46;96550.91;;;14.57;58.55
46476;BME280;53376;51.114;14.738;2022-09-27T03:15:13;96551.75;;;14.58;58.51
46476;BME280;53376;51.114;14.738;2022-09-27T03:17:52;96549.91;;;14.58;58.68
46476;BME280;53376;51.114;14.738;2022-09-27T03:20:41;96541.88;;;14.58;58.62
46476;BME280;53376;51.114;14.738;2022-09-27T03:23:24;96534.56;;;14.60;58.55
46476;BME280;53376;51.114;14.738;2022-09-27T03:25:53;96531.69;;;14.62;58.45
46476;BME280;53376;51.114;14.738;2022-09-27T03:39:02;96509.81;;;14.58;58.81
46476;BME280;53376;51.114;14.738;2022-09-27T03:41:47;96511.81;;;14.56;58.65
46476;BME280;53376;51.114;14.738;2022-09-27T03:44:30;96503.94;;;14.55;58.71
46476;BME280;53376;51.114;14.738;2022-09-27T03:47:10;96499.44;;;14.55;58.66
46476;BME280;53376;51.114;14.738;2022-09-27T03:49:37;96493.44;;;14.53;58.63
46476;BME280;53376;51.114;14.738;2022-09-27T04:06:30;96465.84;;;14.36;58.98
46476;BME280;53376;51.114;14.738;2022-09-27T04:09:04;96469.50;;;14.35;59.03
46476;BME280;53376;51.114;14.738;2022-09-27T04:11:54;96468.69;;;14.34;59.19
46476;BME280;53376;51.114;14.738;2022-09-27T04:14:28;96456.31;;;14.33;59.12
46476;BME280;53376;51.114;14.738;2022-09-27T04:17:26;96466.84;;;14.35;59.09
46476;BME280;53376;51.114;14.738;2022-09-27T04:20:22;96467.69;;;14.35;59.03
46476;BME280;53376;51.114;14.738;2022-09-27T04:30:21;96454.31;;;14.27;59.03
46476;BME280;53376;51.114;14.738;2022-09-27T04:33:12;96464.31;;;14.25;59.09
46476;BME280;53376;51.114;14.738;2022-09-27T04:36:16;96453.78;;;14.24;59.14
46476;BME280;53376;51.114;14.738;2022-09-27T04:39:14;96458.44;;;14.22;58.99
46476;BME280;53376;51.114;14.738;2022-09-27T04:41:53;96461.13;;;14.22;59.19
46476;BME280;53376;51.114;14.738;2022-09-27T04:44:20;96451.28;;;14.22;59.21
46476;BME280;53376;51.114;14.738;2022-09-27T04:57:33;96475.00;;;14.17;59.31
46476;BME280;53376;51.114;14.738;2022-09-27T05:00:13;96472.16;;;14.18;59.34
46476;BME280;53376;51.114;14.738;2022-09-27T05:02:43;96471.28;;;14.18;59.17
46476;BME280;53376;51.114;14.738;2022-09-27T05:05:44;96467.97;;;14.16;59.27
46476;BME280;53376;51.114;14.738;2022-09-27T05:08:17;96453.94;;;14.14;59.49
46476;BME280;53376;51.114;14.738;2022-09-27T05:11:16;96467.13;;;14.15;59.44
46476;BME280;53376;51.114;14.738;2022-09-27T05:24:13;96460.78;;;14.16;59.50
46476;BME280;53376;51.114;14.738;2022-09-27T05:26:53;96463.44;;;14.16;59.58
46476;BME280;53376;51.114;14.738;2022-09-27T05:29:33;96461.63;;;14.17;59.55
46476;BME280;53376;51.114;14.738;2022-09-27T05:32:29;96458.28;;;14.15;59.79
46476;BME280;53376;51.114;14.738;2022-09-27T05:35:25;96452.94;;;14.15;59.71
46476;BME280;53376;51.114;14.738;2022-09-27T05:37:59;96455.59;;;14.15;59.81
46476;BME280;53376;51.114;14.738;2022-09-27T05:40:43;96462.63;;;14.16;59.93
46476;BME280;53376;51.114;14.738;2022-09-27T05:53:21;96451.94;;;14.16;60.02
46476;BME280;53376;51.114;14.738;2022-09-27T05:55:50;96455.25;;;14.18;60.07
46476;BME280;53376;51.114;14.738;2022-09-27T05:58:48;96455.44;;;14.16;60.09
46476;BME280;53376;51.114;14.738;2022-09-27T06:01:21;96458.97;;;14.17;60.08
46476;BME280;53376;51.114;14.738;2022-09-27T06:04:30;96460.59;;;14.18;60.08
46476;BME280;53376;51.114;14.738;2022-09-27T06:17:52;96455.59;;;14.15;60.43
46476;BME280;53376;51.114;14.738;2022-09-27T06:20:33;96448.28;;;14.17;60.39
46476;BME280;53376;51.114;14.738;2022-09-27T06:23:15;96450.94;;;14.17;60.38
46476;BME280;53376;51.114;14.738;2022-09-27T06:25:43;96456.28;;;14.17;60.41
46476;BME280;53376;51.114;14.738;2022-09-27T06:28:37;96456.94;;;14.19;60.40
46476;BME280;53376;51.114;14.738;2022-09-27T06:31:11;96450.78;;;14.18;60.51
46476;BME280;53376;51.114;14.738;2022-09-27T06:44:29;96457.28;;;14.16;60.85
46476;BME280;53376;51.114;14.738;2022-09-27T06:47:35;96455.25;;;14.18;60.92
46476;BME280;53376;51.114;14.738;2022-09-27T06:50:45;96456.28;;;14.17;60.94
46476;BME280;53376;51.114;14.738;2022-09-27T06:53:26;96452.59;;;14.18;60.82
46476;BME280;53376;51.114;14.738;2022-09-27T06:55:56;96455.94;;;14.20;60.91
46476;BME280;53376;51.114;14.738;2022-09-27T06:58:55;96449.63;;;14.21;61.00
46476;BME280;53376;51.114;14.738;2022-09-27T07:11:57;96464.47;;;14.24;61.19
46476;BME280;53376;51.114;14.738;2022-09-27T07:14:37;96463.31;;;14.26;61.53
46476;BME280;53376;51.114;14.738;2022-09-27T07:17:19;96463.31;;;14.26;61.22
46476;BME280;53376;51.114;14.738;2022-09-27T07:19:48;96463.31;;;14.26;61.26
46476;BME280;53376;51.114;14.738;2022-09-27T07:22:28;96468.34;;;14.29;61.38
46476;BME280;53376;51.114;14.738;2022-09-27T07:24:59;96468.34;;;14.29;61.27
46476;BME280;53376;51.114;14.738;2022-09-27T07:38:11;96477.22;;;14.38;61.65
46476;BME280;53376;51.114;14.738;2022-09-27T07:40:52;96480.69;;;14.39;61.54
46476;BME280;53376;51.114;14.738;2022-09-27T07:43:19;96478.84;;;14.39;61.28
46476;BME280;53376;51.114;14.738;2022-09-27T07:46:00;96481.38;;;14.41;61.31
46476;BME280;53376;51.114;14.738;2022-09-27T07:48:42;96469.53;;;14.43;61.66
46476;BME280;53376;51.114;14.738;2022-09-27T08:05:37;96457.69;;;14.62;61.26
46476;BME280;53376;51.114;14.738;2022-09-27T08:08:17;96462.41;;;14.69;61.30
46476;BME280;53376;51.114;14.738;2022-09-27T08:10:58;96456.91;;;14.70;61.01
46476;BME280;53376;51.114;14.738;2022-09-27T08:13:25;96453.88;;;14.73;61.46
46476;BME280;53376;51.114;14.738;2022-09-27T08:16:05;96458.06;;;14.76;61.23
46476;BME280;53376;51.114;14.738;2022-09-27T08:18:50;96463.09;;;14.79;61.04
46476;BME280;53376;51.114;14.738;2022-09-27T08:32:21;96454.72;;;14.90;60.60
46476;BME280;53376;51.114;14.738;2022-09-27T08:35:01;96452.69;;;14.92;60.67
46476;BME280;53376;51.114;14.738;2022-09-27T08:37:28;96468.41;;;14.95;60.38
46476;BME280;53376;51.114;14.738;2022-09-27T08:40:12;96463.56;;;14.99;60.35
46476;BME280;53376;51.114;14.738;2022-09-27T08:42:59;96457.06;;;15.02;60.22
46476;BME280;53376;51.114;14.738;2022-09-27T08:45:57;96465.75;;;15.04;60.05
46476;BME280;53376;51.114;14.738;2022-09-27T08:59:00;96480.13;;;15.03;59.38
46476;BME280;53376;51.114;14.738;2022-09-27T09:01:44;96473.94;;;15.02;59.14
46476;BME280;53376;51.114;14.738;2022-09-27T09:04:38;96474.94;;;15.01;59.34
46476;BME280;53376;51.114;14.738;2022-09-27T09:07:23;96487.47;;;15.01;59.31
46476;BME280;53376;51.114;14.738;2022-09-27T09:10:28;96473.94;;;15.02;59.39
46476;BME280;53376;51.114;14.738;2022-09-27T09:26:58;96457.69;;;15.20;58.46
46476;BME280;53376;51.114;14.738;2022-09-27T09:30:02;96466.91;;;15.26;58.31
46476;BME280;53376;51.114;14.738;2022-09-27T09:32:57;96467.72;;;15.35;58.23
46476;BME280;53376;51.114;14.738;2022-09-27T09:35:53;96470.72;;;15.40;58.14
46476;BME280;53376;51.114;14.738;2022-09-27T09:38:37;96464.69;;;15.46;57.89
46476;BME280;53376;51.114;14.738;2022-09-27T09:41:24;96473.34;;;15.48;57.65
46476;BME280;53376;51.114;14.738;2022-09-27T09:51:50;96470.50;;;15.58;57.31
46476;BME280;53376;51.114;14.738;2022-09-27T09:54:41;96465.13;;;15.58;57.36
46476;BME280;53376;51.114;14.738;2022-09-27T09:57:22;96452.59;;;15.58;57.46
46476;BME280;53376;51.114;14.738;2022-09-27T10:00:14;96448.91;;;15.59;57.55
46476;BME280;53376;51.114;14.738;2022-09-27T10:02:53;96443.56;;;15.59;56.79
46476;BME280;53376;51.114;14.738;2022-09-27T10:05:34;96443.56;;;15.59;56.85
46476;BME280;53376;51.114;14.738;2022-09-27T10:18:23;96444.38;;;15.60;57.10
46476;BME280;53376;51.114;14.738;2022-09-27T10:21:07;96443.56;;;15.59;57.22
46476;BME280;53376;51.114;14.738;2022-09-27T10:24:10;96441.53;;;15.61;57.45
46476;BME280;53376;51.114;14.738;2022-09-27T10:27:04;96435.34;;;15.61;57.36
46476;BME280;53376;51.114;14.738;2022-09-27T10:29:43;96432.50;;;15.62;57.06
46476;BME280;53376;51.114;14.738;2022-09-27T10:46:14;96447.69;;;15.87;56.47
46476;BME280;53376;51.114;14.738;2022-09-27T10:49:34;96443.63;;;15.91;56.60
46476;BME280;53376;51.114;14.738;2022-09-27T10:52:26;96446.97;;;15.93;56.65
46476;BME280;53376;51.114;14.738;2022-09-27T10:55:20;96441.44;;;15.94;56.42
46476;BME280;53376;51.114;14.738;2022-09-27T10:57:56;96439.75;;;15.93;56.21
46476;BME280;53376;51.114;14.738;2022-09-27T11:00:36;96442.44;;;15.93;56.30
46476;BME280;53376;51.114;14.738;2022-09-27T11:13:20;96442.38;;;16.10;57.24
46476;BME280;53376;51.114;14.738;2022-09-27T11:16:24;96444.88;;;16.11;57.36
46476;BME280;53376;51.114;14.738;2022-09-27T11:19:42;96448.03;;;16.15;57.26
46476;BME280;53376;51.114;14.738;2022-09-27T11:22:48;96451.53;;;16.16;57.45
46476;BME280;53376;51.114;14.738;2022-09-27T11:26:16;96448.38;;;16.12;56.89
46476;BME280;53376;51.114;14.738;2022-09-27T11:39:26;96474.63;;;15.85;55.50
46476;BME280;53376;51.114;14.738;2022-09-27T11:42:31;96472.28;;;15.82;56.41
46476;BME280;53376;51.114;14.738;2022-09-27T11:45:35;96476.63;;;15.75;56.88
46476;BME280;53376;51.114;14.738;2022-09-27T11:49:00;96469.28;;;15.69;57.61
46476;BME280;53376;51.114;14.738;2022-09-27T11:52:19;96463.94;;;15.60;57.83
46476;BME280;53376;51.114;14.738;2022-09-27T11:55:25;96447.56;;;15.55;58.48
46476;BME280;53376;51.114;14.738;2022-09-27T12:05:25;96465.00;;;15.51;58.90
46476;BME280;53376;51.114;14.738;2022-09-27T12:08:31;96461.63;;;15.57;59.45
46476;BME280;53376;51.114;14.738;2022-09-27T12:11:24;96469.28;;;15.69;59.97
46476;BME280;53376;51.114;14.738;2022-09-27T12:14:04;96473.28;;;15.73;60.03
46476;BME280;53376;51.114;14.738;2022-09-27T12:16:51;96483.00;;;15.74;60.44
46476;BME280;53376;51.114;14.738;2022-09-27T12:19:31;96498.91;;;15.75;60.71
46476;BME280;53376;51.114;14.738;2022-09-27T12:32:58;96510.81;;;15.64;60.00
46476;BME280;53376;51.114;14.738;2022-09-27T12:35:48;96509.00;;;15.57;60.03
46476;BME280;53376;51.114;14.738;2022-09-27T12:38:40;96508.50;;;15.53;59.70
46476;BME280;53376;51.114;14.738;2022-09-27T12:41:25;96518.53;;;15.51;59.51
46476;BME280;53376;51.114;14.738;2022-09-27T12:44:11;96517.84;;;15.49;59.71
46476;BME280;53376;51.114;14.738;2022-09-27T13:00:56;96520.22;;;15.36;59.98
46476;BME280;53376;51.114;14.738;2022-09-27T13:04:02;96523.91;;;15.35;59.98
46476;BME280;53376;51.114;14.738;2022-09-27T13:07:20;96527.59;;;15.25;59.83
46476;BME280;53376;51.114;14.738;2022-09-27T13:10:25;96531.25;;;15.24;60.03
46476;BME280;53376;51.114;14.738;2022-09-27T13:13:24;96534.94;;;15.23;60.30
46476;BME280;53376;51.114;14.738;2022-09-27T13:16:02;96526.25;;;15.21;60.05
46476;BME280;53376;51.114;14.738;2022-09-27T13:25:53;96529.44;;;15.17;60.06
46476;BME280;53376;51.114;14.738;2022-09-27T13:28:57;96525.94;;;15.16;59.92
46476;BME280;53376;51.114;14.738;2022-09-27T13:32:10;96521.91;;;15.28;60.13
46476;BME280;53376;51.114;14.738;2022-09-27T13:35:19;96524.16;;;15.73;60.27
46476;BME280;53376;51.114;14.738;2022-09-27T13:38:21;96517.91;;;16.05;59.03
46476;BME280;53376;51.114;14.738;2022-09-27T13:41:13;96528.44;;;16.15;59.03
46476;BME280;53376;51.114;14.738;2022-09-27T13:54:53;96534.16;;;16.04;59.40
46476;BME280;53376;51.114;14.738;2022-09-27T13:57:50;96526.34;;;15.94;59.30
46476;BME280;53376;51.114;14.738;2022-09-27T14:00:37;96539.38;;;15.89;59.11
46476;BME280;53376;51.114;14.738;2022-09-27T14:03:31;96545.59;;;15.89;59.12
46476;BME280;53376;51.114;14.738;2022-09-27T14:06:16;96557.97;;;15.90;58.98
46476;BME280;53376;51.114;14.738;2022-09-27T14:19:39;96558.25;;;17.06;57.50
46476;BME280;53376;51.114;14.738;2022-09-27T14:22:23;96550.91;;;17.62;55.54
46476;BME280;53376;51.114;14.738;2022-09-27T14:25:16;96555.75;;;17.66;54.42
46476;BME280;53376;51.114;14.738;2022-09-27T14:27:57;96562.84;;;17.44;54.47
46476;BME280;53376;51.114;14.738;2022-09-27T14:30:32;96561.00;;;17.21;54.74
46476;BME280;53376;51.114;14.738;2022-09-27T14:33:37;96567.91;;;16.92;54.95
46476;BME280;53376;51.114;14.738;2022-09-27T14:36:24;96574.19;;;16.76;55.14
46476;BME280;53376;51.114;14.738;2022-09-27T14:46:31;96573.28;;;16.92;55.30
46476;BME280;53376;51.114;14.738;2022-09-27T14:49:19;96570.78;;;17.14;54.55
46476;BME280;53376;51.114;14.738;2022-09-27T14:52:00;96587.59;;;17.08;55.23
46476;BME280;53376;51.114;14.738;2022-09-27T14:54:28;96579.59;;;17.00;54.74
46476;BME280;53376;51.114;14.738;2022-09-27T14:57:09;96581.00;;;16.87;55.26
46476;BME280;53376;51.114;14.738;2022-09-27T14:59:45;96578.78;;;16.91;55.17
46476;BME280;53376;51.114;14.738;2022-09-27T15:12:59;96576.47;;;18.41;53.14
46476;BME280;53376;51.114;14.738;2022-09-27T15:15:40;96580.81;;;18.57;52.78
46476;BME280;53376;51.114;14.738;2022-09-27T15:18:32;96578.78;;;18.59;52.14
46476;BME280;53376;51.114;14.738;2022-09-27T15:21:27;96579.41;;;18.61;52.01
46476;BME280;53376;51.114;14.738;2022-09-27T15:24:02;96590.63;;;18.49;51.12
46476;BME280;53376;51.114;14.738;2022-09-27T15:41:07;96607.16;;;17.78;51.79
46476;BME280;53376;51.114;14.738;2022-09-27T15:43:51;96606.97;;;17.65;51.99
46476;BME280;53376;51.114;14.738;2022-09-27T15:46:36;96614.13;;;17.49;52.57
46476;BME280;53376;51.114;14.738;2022-09-27T15:49:26;96615.94;;;17.34;52.63
46476;BME280;53376;51.114;14.738;2022-09-27T15:52:38;96618.09;;;17.15;53.02
46476;BME280;53376;51.114;14.738;2022-09-27T15:55:15;96618.84;;;17.01;53.28
46476;BME280;53376;51.114;14.738;2022-09-27T16:08:28;96625.78;;;16.47;54.51
46476;BME280;53376;51.114;14.738;2022-09-27T16:11:13;96632.84;;;16.40;54.67
46476;BME280;53376;51.114;14.738;2022-09-27T16:13:47;96638.91;;;16.34;54.93
46476;BME280;53376;51.114;14.738;2022-09-27T16:16:27;96634.25;;;16.27;55.10
46476;BME280;53376;51.114;14.738;2022-09-27T16:18:54;96640.28;;;16.21;55.08
46476;BME280;53376;51.114;14.738;2022-09-27T16:21:33;96639.78;;;16.18;55.41
46476;BME280;53376;51.114;14.738;2022-09-27T16:34:29;96658.91;;;15.90;54.46
46476;BME280;53376;51.114;14.738;2022-09-27T16:37:08;96666.44;;;15.86;54.80
46476;BME280;53376;51.114;14.738;2022-09-27T16:39:35;96662.72;;;15.79;54.26
46476;BME280;53376;51.114;14.738;2022-09-27T16:42:08;96671.13;;;15.76;54.70
46476;BME280;53376;51.114;14.738;2022-09-27T16:44:48;96676.16;;;15.71;54.70
46476;BME280;53376;51.114;14.738;2022-09-27T17:00:58;96685.16;;;15.45;54.80
46476;BME280;53376;51.114;14.738;2022-09-27T17:03:37;96686.66;;;15.39;54.46
46476;BME280;53376;51.114;14.738;2022-09-27T17:06:04;96694.50;;;15.32;54.51
46476;BME280;53376;51.114;14.738;2022-09-27T17:08:45;96689.81;;;15.26;54.33
46476;BME280;53376;51.114;14.738;2022-09-27T17:11:13;96692.81;;;15.23;54.27
46476;BME280;53376;51.114;14.738;2022-09-27T17:13:54;96692.47;;;15.18;54.12
46476;BME280;53376;51.114;14.738;2022-09-27T17:16:23;96697.16;;;15.16;54.43
46476;BME280;53376;51.114;14.738;2022-09-27T17:26:17;96698.31;;;15.05;54.56
46476;BME280;53376;51.114;14.738;2022-09-27T17:28:59;96696.09;;;15.01;54.51
46476;BME280;53376;51.114;14.738;2022-09-27T17:31:41;96690.41;;;14.95;54.47
46476;BME280;53376;51.114;14.738;2022-09-27T17:34:10;96691.41;;;14.94;54.42
46476;BME280;53376;51.114;14.738;2022-09-27T17:36:50;96689.22;;;14.90;54.54
46476;BME280;53376;51.114;14.738;2022-09-27T17:39:19;96682.03;;;14.90;54.67
46476;BME280;53376;51.114;14.738;2022-09-27T17:52:56;96672.47;;;14.79;54.41
46476;BME280;53376;51.114;14.738;2022-09-27T17:55:35;96682.47;;;14.77;54.41
46476;BME280;53376;51.114;14.738;2022-09-27T17:58:02;96689.97;;;14.74;54.41
46476;BME280;53376;51.114;14.738;2022-09-27T18:00:35;96686.66;;;14.72;54.36
46476;BME280;53376;51.114;14.738;2022-09-27T18:03:15;96694.00;;;14.70;54.17
46476;BME280;53376;51.114;14.738;2022-09-27T18:05:42;96690.94;;;14.64;54.42
46476;BME280;53376;51.114;14.738;2022-09-27T18:21:57;96702.38;;;14.48;55.13
46476;BME280;53376;51.114;14.738;2022-09-27T18:24:37;96710.88;;;14.44;54.98
46476;BME280;53376;51.114;14.738;2022-09-27T18:27:08;96714.53;;;14.43;55.30
46476;BME280;53376;51.114;14.738;2022-09-27T18:29:48;96717.53;;;14.40;55.05
46476;BME280;53376;51.114;14.738;2022-09-27T18:32:17;96727.38;;;14.39;55.18
46476;BME280;53376;51.114;14.738;2022-09-27T18:34:57;96726.53;;;14.39;55.18
46476;BME280;53376;51.114;14.738;2022-09-27T18:47:42;96733.50;;;14.31;55.01
46476;BME280;53376;51.114;14.738;2022-09-27T18:50:23;96724.16;;;14.27;54.94
46476;BME280;53376;51.114;14.738;2022-09-27T18:53:06;96726.81;;;14.27;55.21
46476;BME280;53376;51.114;14.738;2022-09-27T18:55:35;96733.31;;;14.25;55.30
46476;BME280;53376;51.114;14.738;2022-09-27T18:58:19;96733.47;;;14.23;55.48
46476;BME280;53376;51.114;14.738;2022-09-27T19:00:57;96732.09;;;14.19;55.38
46476;BME280;53376;51.114;14.738;2022-09-27T19:14:15;96734.41;;;14.14;55.71
46476;BME280;53376;51.114;14.738;2022-09-27T19:16:58;96729.75;;;14.16;55.94
46476;BME280;53376;51.114;14.738;2022-09-27T19:19:25;96728.06;;;14.15;55.48
46476;BME280;53376;51.114;14.738;2022-09-27T19:22:06;96725.84;;;14.10;55.24
46476;BME280;53376;51.114;14.738;2022-09-27T19:24:33;96730.66;;;14.07;55.40
46476;BME280;53376;51.114;14.738;2022-09-27T19:40:53;96725.50;;;13.87;55.85
46476;BME280;53376;51.114;14.738;2022-09-27T19:43:33;96738.19;;;13.85;56.01
46476;BME280;53376;51.114;14.738;2022-09-27T19:46:04;96734.00;;;13.82;56.18
46476;BME280;53376;51.114;14.738;2022-09-27T19:48:47;96727.81;;;13.82;56.32
46476;BME280;53376;51.114;14.738;2022-09-27T19:51:16;96728.78;;;13.81;56.02
46476;BME280;53376;51.114;14.738;2022-09-27T19:53:57;96730.19;;;13.85;56.19
46476;BME280;53376;51.114;14.738;2022-09-27T19:56:26;96734.53;;;13.86;56.05
46476;BME280;53376;51.114;14.738;2022-09-27T20:06:37;96733.84;;;13.84;55.71
46476;BME280;53376;51.114;14.738;2022-09-27T20:09:17;96735.16;;;13.80;55.69
46476;BME280;53376;51.114;14.738;2022-09-27T20:12:00;96746.13;;;13.77;55.78
46476;BME280;53376;51.114;14.738;2022-09-27T20:14:26;96744.44;;;13.76;55.75
46476;BME280;53376;51.114;14.738;2022-09-27T20:17:10;96741.94;;;13.74;55.83
46476;BME280;53376;51.114;14.738;2022-09-27T20:19:36;96740.09;;;13.75;55.71
46476;BME280;53376;51.114;14.738;2022-09-27T20:36:08;96755.44;;;13.73;55.85
46476;BME280;53376;51.114;14.738;2022-09-27T20:38:36;96753.75;;;13.72;55.75
46476;BME280;53376;51.114;14.738;2022-09-27T20:41:17;96748.72;;;13.68;55.65
46476;BME280;53376;51.114;14.738;2022-09-27T20:43:54;96751.69;;;13.65;55.70
46476;BME280;53376;51.114;14.738;2022-09-27T20:46:36;96743.16;;;13.62;55.76
46476;BME280;53376;51.114;14.738;2022-09-27T20:49:07;96745.13;;;13.60;55.75
46476;BME280;53376;51.114;14.738;2022-09-27T21:02:18;96746.22;;;13.49;55.82
46476;BME280;53376;51.114;14.738;2022-09-27T21:04:59;96736.81;;;13.45;55.88
46476;BME280;53376;51.114;14.738;2022-09-27T21:07:26;96738.81;;;13.43;55.99
46476;BME280;53376;51.114;14.738;2022-09-27T21:10:06;96728.16;;;13.43;55.99
46476;BME280;53376;51.114;14.738;2022-09-27T21:12:33;96737.81;;;13.44;56.18
46476;BME280;53376;51.114;14.738;2022-09-27T21:15:12;96736.00;;;13.44;56.04
46476;BME280;53376;51.114;14.738;2022-09-27T21:27:56;96741.38;;;13.34;56.21
46476;BME280;53376;51.114;14.738;2022-09-27T21:30:36;96741.66;;;13.31;56.09
46476;BME280;53376;51.114;14.738;2022-09-27T21:33:16;96738.59;;;13.26;56.12
46476;BME280;53376;51.114;14.738;2022-09-27T21:35:48;96737.22;;;13.22;56.13
46476;BME280;53376;51.114;14.738;2022-09-27T21:38:28;96738.22;;;13.21;56.17
46476;BME280;53376;51.114;14.738;2022-09-27T21:40:57;96741.03;;;13.19;56.15
46476;BME280;53376;51.114;14.738;2022-09-27T21:54:12;96740.25;;;13.09;56.34
46476;BME280;53376;51.114;14.738;2022-09-27T21:56:52;96733.09;;;13.10;56.49
46476;BME280;53376;51.114;14.738;2022-09-27T21:59:19;96733.94;;;13.10;56.50
46476;BME280;53376;51.114;14.738;2022-09-27T22:01:52;96736.59;;;13.10;56.23
46476;BME280;53376;51.114;14.738;2022-09-27T22:04:32;96733.09;;;13.10;56.39
46476;BME280;53376;51.114;14.738;2022-09-27T22:06:59;96732.13;;;13.11;56.35
46476;BME280;53376;51.114;14.738;2022-09-27T22:09:34;96733.09;;;13.10;56.19
46476;BME280;53376;51.114;14.738;2022-09-27T22:22:43;96750.91;;;13.09;56.32
46476;BME280;53376;51.114;14.738;2022-09-27T22:25:18;96751.06;;;13.07;56.24
46476;BME280;53376;51.114;14.738;2022-09-27T22:27:51;96744.06;;;13.06;56.59
46476;BME280;53376;51.114;14.738;2022-09-27T22:30:32;96749.38;;;13.06;56.36
46476;BME280;53376;51.114;14.738;2022-09-27T22:33:00;96740.72;;;13.04;56.50
46476;BME280;53376;51.114;14.738;2022-09-27T22:35:44;96737.19;;;13.04;56.59
46476;BME280;53376;51.114;14.738;2022-09-27T22:48:35;96735.97;;;12.98;56.59
46476;BME280;53376;51.114;14.738;2022-09-27T22:51:16;96735.97;;;12.98;56.66
46476;BME280;53376;51.114;14.738;2022-09-27T22:53:56;96732.16;;;13.01;56.65
46476;BME280;53376;51.114;14.738;2022-09-27T22:56:23;96733.16;;;13.00;56.64
46476;BME280;53376;51.114;14.738;2022-09-27T22:58:56;96733.16;;;13.00;56.59
46476;BME280;53376;51.114;14.738;2022-09-27T23:01:36;96734.28;;;12.97;56.57
46476;BME280;53376;51.114;14.738;2022-09-27T23:14:19;96725.25;;;12.80;56.64
46476;BME280;53376;51.114;14.738;2022-09-27T23:16:58;96727.09;;;12.80;56.75
46476;BME280;53376;51.114;14.738;2022-09-27T23:19:38;96727.09;;;12.80;56.71
46476;BME280;53376;51.114;14.738;2022-09-27T23:22:05;96728.06;;;12.79;56.79
46476;BME280;53376;51.114;14.738;2022-09-27T23:24:38;96728.91;;;12.79;56.83
46476;BME280;53376;51.114;14.738;2022-09-27T23:27:18;96733.56;;;12.77;56.95
46476;BME280;53376;51.114;14.738;2022-09-27T23:29:47;96725.41;;;12.79;56.88
46476;BME280;53376;51.114;14.738;2022-09-27T23:42:57;96719.75;;;12.82;57.17
46476;BME280;53376;51.114;14.738;2022-09-27T23:45:38;96725.09;;;12.82;57.24